Time;durP1;ratioP1;P1;durP2;ratioP2;P2;SDS_P1;SDS_P2;PMS_P1;PMS_P2;Temp;Humidity;BMP_temperature;BMP_pressure;BME280_temperature;BME280_humidity;BME280_pressure;Samples;Min_cycle;Max_cycle;Signal;HPM_P1;HPM_P2
2022/01/24 00:01:49;;;;;;;9.87;5.73;;;;;;;-3.01;70.09;97744.16;6169584;23;20199;-82
2022/01/24 00:04:17;;;;;;;9.57;5.30;;;;;;;-3.10;68.55;97756.63;6142184;23;20196;-81
2022/01/24 00:06:48;;;;;;;11.07;5.63;;;;;;;-3.36;69.40;97721.53;6170392;23;20159;-81
2022/01/24 00:09:15;;;;;;;11.30;6.30;;;;;;;-3.22;69.76;97746.28;6167332;23;20164;-81
2022/01/24 00:11:48;;;;;;;8.60;5.97;;;;;;;-3.19;70.95;97738.75;6114463;23;20571;-82
2022/01/24 00:17:18;;;;;;;14.80;7.83;;;;;;;-3.01;71.19;97764.41;6138224;23;20235;-81
2022/01/24 00:28:05;;;;;;;11.27;7.07;;;;;;;-3.06;69.60;97725.47;6167805;23;20166;-82
2022/01/24 00:30:33;;;;;;;9.20;5.80;;;;;;;-2.93;69.86;97752.75;6116634;23;20541;-82
2022/01/24 00:33:00;;;;;;;10.50;6.30;;;;;;;-2.86;71.13;97769.75;6168359;23;20163;-82
2022/01/24 00:35:28;;;;;;;9.40;5.67;;;;;;;-2.87;71.46;97768.91;6144613;23;20201;-82
2022/01/24 00:38:01;;;;;;;18.63;7.80;;;;;;;-3.06;70.93;97755.88;6126757;23;20172;-82
2022/01/24 00:40:35;;;;;;;8.53;5.33;;;;;;;-3.26;72.95;97775.75;6174033;23;20260;-82
2022/01/24 00:43:06;;;;;;;7.77;4.30;;;;;;;-3.50;68.62;97768.53;6118785;23;20163;-82
2022/01/24 00:45:58;;;;;;;5.20;3.80;;;;;;;-3.38;65.02;97773.81;6119716;23;20554;-83
2022/01/24 00:56:18;;;;;;;5.40;3.37;;;;;;;-3.53;63.40;97758.34;6141358;23;20204;-83
2022/01/24 00:58:46;;;;;;;6.80;3.77;;;;;;;-3.47;64.31;97773.66;6114914;23;20586;-82
2022/01/24 01:01:15;;;;;;;3.33;2.57;;;;;;;-3.71;64.67;97750.34;6125957;23;20213;-82
2022/01/24 01:03:45;;;;;;;3.80;2.77;;;;;;;-3.58;63.59;97759.91;6127974;23;20296;-82
2022/01/24 01:06:13;;;;;;;5.97;3.97;;;;;;;-3.63;63.12;97740.41;6128427;23;20247;-82
2022/01/24 01:19:49;;;;;;;7.53;4.90;;;;;;;-3.23;62.53;97754.69;6168169;23;20281;-83
2022/01/24 01:22:17;;;;;;;6.60;4.00;;;;;;;-3.43;62.15;97724.81;6167217;23;20168;-82
2022/01/24 01:24:51;;;;;;;5.87;3.23;;;;;;;-3.26;62.25;97757.19;6138906;23;20179;-83
2022/01/24 01:27:25;;;;;;;5.57;3.37;;;;;;;-3.18;61.84;97791.09;6140754;23;20524;-83
2022/01/24 01:55:58;;;;;;;8.40;3.80;;;;;;;-3.21;63.09;97775.84;6135454;23;20176;-83
2022/01/24 01:58:25;;;;;;;6.47;4.20;;;;;;;-3.33;65.00;97771.38;6135351;23;20167;-81
2022/01/24 02:00:56;;;;;;;5.67;4.43;;;;;;;-3.55;66.75;97759.13;6161129;23;20687;-83
2022/01/24 02:03:25;;;;;;;5.93;3.73;;;;;;;-3.46;63.40;97785.47;6132728;23;20231;-81
2022/01/24 02:05:54;;;;;;;4.70;3.90;;;;;;;-3.72;66.55;97758.78;6110362;23;20168;-80
2022/01/24 02:08:23;;;;;;;7.60;4.43;;;;;;;-3.75;67.74;97751.13;6129723;23;20178;-81
2022/01/24 02:10:52;;;;;;;6.00;3.87;;;;;;;-3.79;68.40;97751.06;6131099;23;20172;-81
2022/01/24 02:13:25;;;;;;;6.40;4.43;;;;;;;-3.65;68.35;97796.06;6157420;23;20253;-82
2022/01/24 02:18:36;;;;;;;7.10;4.07;;;;;;;-3.58;66.75;97790.28;6133614;23;20569;-82
2022/01/24 02:21:27;;;;;;;6.47;4.10;;;;;;;-3.50;64.67;97795.50;6158054;23;20199;-82
2022/01/24 02:23:58;;;;;;;5.00;3.60;;;;;;;-3.54;64.99;97811.44;6156478;23;20164;-81
2022/01/24 02:26:26;;;;;;;5.77;3.70;;;;;;;-3.54;66.61;97806.38;6131879;23;20174;-82
2022/01/24 02:29:01;;;;;;;6.17;3.90;;;;;;;-3.58;62.28;97790.28;6132105;23;20589;-81
2022/01/24 02:34:36;;;;;;;6.43;3.40;;;;;;;-3.37;62.42;97810.13;6103547;23;20163;-81
2022/01/24 02:37:07;;;;;;;5.60;3.47;;;;;;;-3.32;62.65;97801.78;6124817;23;20167;-82
2022/01/24 02:39:56;;;;;;;6.77;3.80;;;;;;;-3.36;62.98;97811.84;6100878;23;20196;-82
2022/01/24 02:48:24;;;;;;;8.67;4.60;;;;;;;-3.50;65.55;97811.53;6127046;23;20178;-82
2022/01/24 02:53:24;;;;;;;5.63;3.40;;;;;;;-3.40;59.98;97825.28;6155498;23;20186;-81
2022/01/24 02:55:53;;;;;;;6.67;3.57;;;;;;;-3.36;57.53;97848.13;6132810;23;20179;-81
2022/01/24 02:58:21;;;;;;;5.03;3.60;;;;;;;-3.50;60.67;97821.69;6139669;23;20207;-82
2022/01/24 03:00:50;;;;;;;5.77;4.20;;;;;;;-3.53;61.51;97816.56;6147553;23;20268;-81
2022/01/24 03:03:20;;;;;;;6.70;3.90;;;;;;;-3.65;62.22;97802.78;6127658;23;20168;-82
2022/01/24 03:05:51;;;;;;;5.20;3.93;;;;;;;-3.73;62.57;97772.25;6148060;23;20168;-82
2022/01/24 03:08:21;;;;;;;5.30;4.17;;;;;;;-3.47;62.91;97834.41;6177086;23;20156;-82
2022/01/24 03:10:49;;;;;;;7.80;4.53;;;;;;;-3.60;62.68;97797.00;6172099;23;20173;-82
2022/01/24 03:15:49;;;;;;;10.77;4.53;;;;;;;-3.24;63.36;97827.28;6153281;23;20176;-83
2022/01/24 03:18:19;;;;;;;7.40;4.50;;;;;;;-3.13;63.64;97837.63;6181708;23;20159;-83
2022/01/24 03:20:47;;;;;;;9.27;5.33;;;;;;;-3.46;64.63;97795.59;6109000;23;20198;-83
2022/01/24 03:23:16;;;;;;;7.67;4.77;;;;;;;-3.17;64.61;97841.75;6156519;23;20189;-81
2022/01/24 03:25:45;;;;;;;8.23;4.30;;;;;;;-3.17;64.23;97839.22;6182220;23;20158;-82
2022/01/24 03:28:12;;;;;;;6.60;4.40;;;;;;;-3.40;63.07;97831.16;6131123;23;20164;-90
2022/01/24 03:30:45;;;;;;;10.27;6.37;;;;;;;-3.60;63.93;97867.00;6134605;23;20278;-82
2022/01/24 03:33:13;;;;;;;8.97;5.03;;;;;;;-3.62;64.64;97856.84;6129817;23;20171;-84
2022/01/24 03:35:43;;;;;;;15.30;7.97;;;;;;;-3.68;65.91;97838.13;6103296;23;20226;-83
2022/01/24 03:38:12;;;;;;;13.50;7.50;;;;;;;-3.59;66.15;97882.22;6127727;23;20186;-86
2022/01/24 03:40:40;;;;;;;13.43;7.37;;;;;;;-3.84;65.66;97834.44;6127932;23;20285;-84
2022/01/24 03:43:13;;;;;;;11.57;6.20;;;;;;;-3.44;65.63;97856.38;6153999;23;20178;-84
2022/01/24 03:45:44;;;;;;;12.17;7.43;;;;;;;-3.32;65.05;97871.84;6154992;23;20177;-84
2022/01/24 03:49:09;;;;;;;10.37;6.07;;;;;;;-3.36;64.87;97880.22;6127637;23;20172;-84
2022/01/24 03:51:01;;;;;;;6.60;4.30;;;;;;;-3.58;61.88;97856.09;6109400;23;20181;-82
2022/01/24 03:53:29;;;;;;;6.20;4.37;;;;;;;-3.53;62.39;97841.00;6101955;23;20182;-86
2022/01/24 03:55:56;;;;;;;6.60;4.07;;;;;;;-3.23;61.51;97873.69;6126336;23;20187;-85
2022/01/24 03:58:27;;;;;;;9.33;4.87;;;;;;;-3.28;61.74;97891.34;6101088;23;20245;-82
2022/01/24 04:00:58;;;;;;;7.00;4.77;;;;;;;-3.44;61.61;97904.47;6124620;23;20222;-87
2022/01/24 04:03:29;;;;;;;11.10;4.80;;;;;;;-3.63;62.68;97892.25;6125303;23;20667;-83
2022/01/24 04:05:58;;;;;;;8.57;4.17;;;;;;;-3.59;62.91;97919.34;6152262;23;20199;-81
2022/01/24 04:08:26;;;;;;;8.17;4.60;;;;;;;-3.71;63.72;97893.75;6101850;23;20197;-87
2022/01/24 04:10:56;;;;;;;7.50;4.57;;;;;;;-3.43;63.33;97931.50;6077575;23;20177;-85
2022/01/24 04:16:31;;;;;;;7.57;4.20;;;;;;;-3.67;63.76;97905.66;6152619;23;20171;-87
2022/01/24 04:19:27;;;;;;;13.13;6.47;;;;;;;-3.65;63.94;97922.59;6124902;23;20273;-83
2022/01/24 04:21:48;;;;;;;11.27;6.80;;;;;;;-3.71;64.57;97914.81;6123019;23;20215;-84
2022/01/24 04:24:21;;;;;;;8.33;5.30;;;;;;;-3.60;64.94;97933.66;6150161;23;20169;-88
2022/01/24 04:26:49;;;;;;;10.87;5.67;;;;;;;-3.62;64.27;97916.72;6152871;23;20251;-83
2022/01/24 04:29:16;;;;;;;9.80;5.30;;;;;;;-3.45;64.02;97928.94;6129272;23;20187;-87
2022/01/24 04:31:46;;;;;;;7.40;5.03;;;;;;;-3.52;64.06;97939.75;6127744;23;20178;-85
2022/01/24 04:34:13;;;;;;;8.97;5.67;;;;;;;-3.78;64.63;97919.72;6084263;23;20179;-82
2022/01/24 04:36:42;;;;;;;8.87;5.17;;;;;;;-3.76;66.14;97915.53;6154653;23;20164;-82
2022/01/24 04:39:10;;;;;;;10.17;5.43;;;;;;;-3.68;66.65;97949.47;6124070;23;20646;-83
2022/01/24 04:41:41;;;;;;;9.20;5.90;;;;;;;-4.03;66.96;97918.25;6126683;23;20207;-81
2022/01/24 04:46:56;;;;;;;12.83;7.33;;;;;;;-3.93;65.96;97965.72;6141372;23;20194;-85
2022/01/24 04:52:28;;;;;;;10.30;6.33;;;;;;;-4.00;67.33;97971.47;6161941;23;20168;-81
2022/01/24 04:54:57;;;;;;;10.40;5.50;;;;;;;-4.09;67.50;97951.00;6115869;23;20255;-83
2022/01/24 04:57:28;;;;;;;11.70;5.37;;;;;;;-4.05;67.68;97967.09;6111567;23;20175;-83
2022/01/24 05:00:04;;;;;;;12.17;7.20;;;;;;;-4.17;68.38;97947.41;6116282;23;20242;-82
2022/01/24 05:02:31;;;;;;;12.90;6.80;;;;;;;-4.41;66.55;97944.25;6175325;23;20201;-82
2022/01/24 05:04:59;;;;;;;7.70;4.73;;;;;;;-4.35;64.59;97982.31;6099993;23;20194;-82
2022/01/24 05:07:29;;;;;;;8.40;4.87;;;;;;;-4.29;64.78;97988.41;6148459;23;20199;-83
2022/01/24 05:24:50;;;;;;;4.97;3.47;;;;;;;-4.80;65.01;97961.69;6132047;23;20178;-86
2022/01/24 05:27:17;;;;;;;5.83;3.83;;;;;;;-4.43;63.15;98011.59;6153477;23;20402;-88
2022/01/24 05:29:53;;;;;;;5.67;3.93;;;;;;;-4.34;63.13;98006.78;6129164;23;20194;-85
2022/01/24 05:32:21;;;;;;;8.33;4.53;;;;;;;-4.21;63.26;98016.41;6130280;23;20186;-88
2022/01/24 05:34:51;;;;;;;8.37;5.17;;;;;;;-4.23;62.63;98028.16;6137617;23;20408;-92
2022/01/24 05:37:21;;;;;;;8.73;4.67;;;;;;;-4.28;62.95;98025.50;6137246;23;20172;-87
2022/01/24 05:39:49;;;;;;;10.07;5.50;;;;;;;-4.28;63.30;98000.22;6136046;23;20446;-88
2022/01/24 05:42:21;;;;;;;12.40;6.10;;;;;;;-4.12;64.55;98001.47;6103985;23;20203;-91
2022/01/24 05:44:55;;;;;;;8.70;5.53;;;;;;;-3.87;61.43;98020.66;6106277;23;20164;-91
2022/01/24 05:47:26;;;;;;;6.07;3.53;;;;;;;-3.68;58.72;98021.19;6105334;23;20698;-86
2022/01/24 05:49:59;;;;;;;9.90;5.60;;;;;;;-4.02;59.73;97998.41;6128941;23;20172;-93
2022/01/24 05:52:32;;;;;;;9.63;6.10;;;;;;;-3.80;60.89;98032.66;6131644;23;20257;-90
2022/01/24 05:55:07;;;;;;;9.70;4.67;;;;;;;-4.16;60.06;97995.47;6131000;23;20238;-89
2022/01/24 05:57:36;;;;;;;7.07;3.83;;;;;;;-3.87;58.00;98044.28;6132597;23;20172;-87
2022/01/24 06:00:10;;;;;;;8.87;4.33;;;;;;;-3.79;58.60;98052.94;6060635;23;20210;-91
2022/01/24 06:02:38;;;;;;;7.83;4.30;;;;;;;-3.98;58.14;98012.81;6159164;23;20236;-95
2022/01/24 06:05:07;;;;;;;4.97;3.83;;;;;;;-3.99;58.30;98016.16;6161457;23;20179;-93
2022/01/24 06:07:35;;;;;;;6.57;4.53;;;;;;;-3.78;59.14;98049.59;6137920;23;20355;-92
2022/01/24 06:10:07;;;;;;;8.40;4.20;;;;;;;-3.54;59.16;98054.41;6144376;23;20199;-88
2022/01/24 06:12:37;;;;;;;8.20;4.60;;;;;;;-3.52;60.38;98033.41;6153235;23;20164;-82
2022/01/24 06:15:05;;;;;;;7.87;4.13;;;;;;;-3.39;58.89;98044.69;6129652;23;20250;-81
2022/01/24 06:17:32;;;;;;;9.77;5.53;;;;;;;-3.25;58.21;98067.78;6170424;23;20627;-82
2022/01/24 06:20:00;;;;;;;9.77;5.37;;;;;;;-3.63;58.51;98023.84;6125377;23;20175;-82
2022/01/24 06:22:30;;;;;;;6.77;4.50;;;;;;;-3.51;58.54;98049.44;6123846;23;20278;-81
2022/01/24 06:24:58;;;;;;;5.77;4.23;;;;;;;-3.73;58.41;98032.03;6101170;23;20522;-84
2022/01/24 06:27:41;;;;;;;10.90;5.70;;;;;;;-3.32;58.36;98072.72;6103152;23;20168;-81
2022/01/24 06:30:13;;;;;;;9.43;4.97;;;;;;;-3.42;58.78;98078.38;6150643;23;20200;-82
2022/01/24 06:32:42;;;;;;;11.77;7.10;;;;;;;-3.42;59.77;98032.81;6101569;23;20192;-86
2022/01/24 06:35:11;;;;;;;8.10;5.50;;;;;;;-3.08;59.97;98067.38;6101570;23;20174;-82
2022/01/24 06:37:40;;;;;;;10.40;5.53;;;;;;;-2.85;60.44;98085.66;6154089;23;20188;-84
2022/01/24 06:40:10;;;;;;;6.73;4.10;;;;;;;-2.81;59.35;98083.22;6131426;23;20649;-82
2022/01/24 06:42:38;;;;;;;8.73;5.10;;;;;;;-2.98;58.92;98068.44;6157225;23;20196;-81
2022/01/24 06:45:06;;;;;;;8.23;5.50;;;;;;;-2.77;58.74;98074.88;6111074;23;20160;-81
2022/01/24 06:47:34;;;;;;;9.37;4.77;;;;;;;-2.99;57.38;98049.88;6131908;23;20175;-80
2022/01/24 06:50:02;;;;;;;8.87;5.60;;;;;;;-3.00;59.04;98058.28;6133266;23;20175;-84
2022/01/24 06:52:29;;;;;;;11.43;7.90;;;;;;;-3.03;61.97;98090.31;6133716;23;20172;-81
2022/01/24 06:54:57;;;;;;;9.27;5.50;;;;;;;-3.13;60.02;98083.31;6130844;23;20174;-81
2022/01/24 06:57:25;;;;;;;9.80;6.00;;;;;;;-3.19;60.76;98078.09;6107659;23;20636;-79
2022/01/24 06:59:54;;;;;;;19.47;8.67;;;;;;;-3.21;62.99;98080.56;6105353;23;20167;-81
2022/01/24 07:02:25;;;;;;;14.87;8.33;;;;;;;-3.08;63.78;98097.78;6152567;23;20258;-81
2022/01/24 07:04:58;;;;;;;9.70;6.30;;;;;;;-2.95;61.95;98101.47;6103150;23;20175;-85
2022/01/24 07:07:25;;;;;;;12.43;6.30;;;;;;;-3.06;61.76;98108.81;6078764;23;20488;-81
2022/01/24 07:09:53;;;;;;;15.73;8.17;;;;;;;-3.41;63.78;98077.56;6053320;23;20200;-81
2022/01/24 07:12:32;;;;;;;13.27;7.13;;;;;;;-3.31;63.78;98071.91;6104556;23;20619;-80
2022/01/24 07:15:08;;;;;;;13.23;7.90;;;;;;;-3.00;61.77;98111.50;6105354;23;20196;-81
2022/01/24 07:18:00;;;;;;;12.30;7.07;;;;;;;-2.97;63.37;98116.66;6153693;23;20201;-81
2022/01/24 07:20:28;;;;;;;11.17;7.13;;;;;;;-2.99;64.22;98120.81;6131570;23;20574;-83
2022/01/24 07:22:56;;;;;;;13.70;7.20;;;;;;;-3.35;63.70;98092.03;6151181;23;20202;-81
2022/01/24 07:25:23;;;;;;;17.13;8.03;;;;;;;-3.05;64.23;98114.75;6098520;23;20175;-81
2022/01/24 07:27:53;;;;;;;15.27;8.17;;;;;;;-3.16;64.68;98104.34;6150738;23;20174;-81
2022/01/24 07:30:21;;;;;;;17.17;9.30;;;;;;;-3.06;65.11;98086.00;6150211;23;20254;-81
2022/01/24 07:32:51;;;;;;;16.10;8.87;;;;;;;-2.85;63.21;98131.28;6150743;23;20200;-80
2022/01/24 07:35:20;;;;;;;13.57;7.57;;;;;;;-3.04;61.03;98098.69;6123116;23;20167;-81
2022/01/24 07:37:54;;;;;;;13.60;8.53;;;;;;;-2.69;61.65;98138.41;6124342;23;20549;-81
2022/01/24 07:40:22;;;;;;;13.33;7.07;;;;;;;-3.02;60.67;98145.19;6124825;23;20169;-80
2022/01/24 07:43:07;;;;;;;13.63;6.97;;;;;;;-3.00;59.99;98146.97;6100428;23;20254;-81
2022/01/24 07:45:38;;;;;;;15.53;7.53;;;;;;;-2.92;62.29;98142.06;6129898;23;20163;-80
2022/01/24 07:48:08;;;;;;;14.00;7.70;;;;;;;-2.57;60.80;98139.53;6125043;23;20174;-80
2022/01/24 07:50:40;;;;;;;14.83;8.00;;;;;;;-2.68;59.04;98132.53;6151818;23;20203;-81
2022/01/24 07:53:09;;;;;;;13.17;8.37;;;;;;;-2.61;58.81;98116.63;6151351;23;20213;-81
2022/01/24 07:55:40;;;;;;;14.00;7.37;;;;;;;-2.26;57.99;98146.16;6107262;23;20181;-82
2022/01/24 07:58:11;;;;;;;15.13;7.70;;;;;;;-2.40;57.69;98118.78;6113894;23;20212;-85
2022/01/24 08:00:45;;;;;;;18.97;9.00;;;;;;;-2.22;57.98;98150.47;6130368;23;20309;-81
2022/01/24 08:03:17;;;;;;;13.40;8.10;;;;;;;-2.27;59.40;98118.22;6125906;23;20219;-80
2022/01/24 08:05:46;;;;;;;12.63;7.17;;;;;;;-2.05;57.52;98151.69;6151507;23;20167;-81
2022/01/24 08:08:18;;;;;;;17.17;8.27;;;;;;;-1.93;58.58;98146.88;6155620;23;20642;-80
2022/01/24 08:10:48;;;;;;;12.73;8.60;;;;;;;-1.68;57.65;98153.28;6163262;23;20166;-81
2022/01/24 08:13:20;;;;;;;16.33;8.53;;;;;;;-1.68;57.26;98149.06;6123766;23;20174;-83
2022/01/24 08:15:49;;;;;;;11.50;7.23;;;;;;;-1.60;55.34;98135.66;6167859;23;20253;-81
2022/01/24 08:18:17;;;;;;;11.50;7.13;;;;;;;-1.47;53.38;98170.63;6146173;23;20192;-81
2022/01/24 08:20:47;;;;;;;11.43;6.23;;;;;;;-2.12;55.68;98149.00;6117434;23;20189;-80
2022/01/24 08:23:17;;;;;;;12.70;7.27;;;;;;;-2.06;57.71;98165.19;6146014;23;20221;-96
2022/01/24 08:25:54;;;;;;;15.47;8.83;;;;;;;-1.88;57.50;98155.44;6168846;23;20177;-86
2022/01/24 08:28:21;;;;;;;11.37;7.17;;;;;;;-1.68;54.24;98174.47;6143431;23;20167;-81
2022/01/24 08:30:48;;;;;;;13.37;6.03;;;;;;;-2.32;54.41;98150.22;6131452;23;20243;-81
2022/01/24 08:33:17;;;;;;;13.50;7.00;;;;;;;-2.23;54.34;98180.88;6077857;23;20177;-81
2022/01/24 08:35:44;;;;;;;13.03;7.70;;;;;;;-2.01;53.29;98188.13;6154184;23;20221;-84
2022/01/24 08:38:13;;;;;;;17.90;7.97;;;;;;;-1.44;56.56;98175.78;6133083;23;20173;-83
2022/01/24 08:40:42;;;;;;;14.23;8.57;;;;;;;-1.38;57.02;98163.19;6111083;23;20217;-82
2022/01/24 08:43:22;;;;;;;14.27;8.43;;;;;;;-1.15;56.27;98185.63;6140708;23;20254;-85
2022/01/24 08:45:52;;;;;;;15.87;7.93;;;;;;;-1.13;54.31;98199.22;6164052;23;20221;-81
2022/01/24 08:48:21;;;;;;;12.30;8.37;;;;;;;-1.27;54.52;98203.19;6129691;23;20171;-83
2022/01/24 08:50:56;;;;;;;11.20;7.40;;;;;;;-1.17;54.99;98214.38;6129914;23;20182;-80
2022/01/24 08:53:34;;;;;;;16.13;9.63;;;;;;;-1.13;56.08;98206.84;6133072;23;20177;-81
2022/01/24 08:56:05;;;;;;;18.20;8.33;;;;;;;-1.10;56.70;98213.66;6074373;23;20175;-82
2022/01/24 08:58:35;;;;;;;17.17;8.87;;;;;;;-1.32;56.35;98203.94;6127561;23;20233;-82
2022/01/24 09:01:04;;;;;;;12.57;7.13;;;;;;;-1.59;54.32;98214.41;6130408;23;20206;-81
2022/01/24 09:03:39;;;;;;;16.47;9.80;;;;;;;-1.93;56.55;98199.28;6121786;23;20251;-80
2022/01/24 09:06:09;;;;;;;16.43;7.83;;;;;;;-1.82;54.85;98220.69;6138011;23;20170;-80
2022/01/24 09:08:40;;;;;;;11.73;6.80;;;;;;;-1.68;55.41;98209.13;6166064;23;20258;-80
2022/01/24 09:11:09;;;;;;;13.90;6.77;;;;;;;-1.51;54.26;98196.78;6167551;23;20506;-81
2022/01/24 09:13:39;;;;;;;14.80;7.60;;;;;;;-1.36;55.96;98174.22;6161824;23;20167;-79
2022/01/24 09:16:08;;;;;;;12.00;7.70;;;;;;;-1.03;54.74;98207.88;6134556;23;20185;-80
2022/01/24 09:18:36;;;;;;;14.63;7.93;;;;;;;-1.06;55.32;98218.84;6157371;23;20528;-83
2022/01/24 09:21:12;;;;;;;10.67;7.47;;;;;;;-1.19;55.07;98218.56;6109793;23;20170;-78
2022/01/24 09:23:46;;;;;;;12.30;7.23;;;;;;;-1.19;53.42;98209.28;6157799;23;20202;-80
2022/01/24 09:26:21;;;;;;;13.57;7.27;;;;;;;-1.49;53.10;98174.81;6131730;23;20197;-80
2022/01/24 09:28:50;;;;;;;11.67;6.63;;;;;;;-1.51;52.94;98222.19;6133113;23;20172;-80
2022/01/24 09:31:21;;;;;;;18.87;8.70;;;;;;;-1.35;53.31;98221.66;6157133;23;20166;-81
2022/01/24 09:33:51;;;;;;;14.90;9.13;;;;;;;-1.48;54.84;98212.09;6156102;23;20259;-80
2022/01/24 09:36:20;;;;;;;16.33;8.40;;;;;;;-1.42;56.30;98197.81;6131119;23;20169;-81
2022/01/24 09:38:48;;;;;;;9.87;6.67;;;;;;;-1.28;54.44;98180.31;6130599;23;20181;-80
2022/01/24 09:41:17;;;;;;;12.87;7.60;;;;;;;-1.12;51.89;98213.66;6160518;23;20174;-80
2022/01/24 09:43:44;;;;;;;12.63;6.37;;;;;;;-1.66;53.04;98212.56;6131896;23;20201;-81
2022/01/24 09:46:15;;;;;;;10.67;7.20;;;;;;;-1.49;55.82;98187.50;6106731;23;20208;-80
2022/01/24 09:48:44;;;;;;;11.50;6.70;;;;;;;-1.37;55.71;98139.47;6114211;23;20171;-80
2022/01/24 09:51:16;;;;;;;11.17;7.30;;;;;;;-1.98;53.19;98057.09;6115224;23;20191;-81
2022/01/24 09:53:47;;;;;;;15.60;8.33;;;;;;;-1.44;54.84;98208.78;6080753;23;20174;-81
2022/01/24 09:56:20;;;;;;;14.47;8.53;;;;;;;-1.49;56.77;98220.53;6110059;23;20175;-81
2022/01/24 09:58:59;;;;;;;15.70;8.20;;;;;;;-1.49;56.42;98220.53;6108122;23;20176;-81
2022/01/24 10:01:26;;;;;;;14.30;7.80;;;;;;;-1.69;55.59;98210.81;6125835;23;20197;-80
2022/01/24 10:04:15;;;;;;;17.00;9.03;;;;;;;-1.46;57.42;98207.91;6123734;23;20283;-81
2022/01/24 10:07:15;;;;;;;13.87;8.17;;;;;;;-1.48;56.59;98177.38;6130915;23;20186;-78
2022/01/24 10:09:54;;;;;;;14.60;7.80;;;;;;;-1.09;56.72;98206.06;6135911;23;20174;-82
2022/01/24 10:18:04;;;;;;;17.10;8.70;;;;;;;-0.72;55.60;98197.38;6158733;23;20772;-81
2022/01/24 10:20:39;;;;;;;14.53;8.90;;;;;;;-0.79;54.33;98198.13;6131094;23;20515;-81
2022/01/24 10:23:09;;;;;;;13.60;7.83;;;;;;;-0.60;53.93;98210.34;6136609;23;20231;-79
2022/01/24 10:25:52;;;;;;;12.23;8.30;;;;;;;-0.40;55.00;98206.41;6133200;23;20170;-82
2022/01/24 10:28:38;;;;;;;11.97;7.47;;;;;;;-0.27;53.43;98208.28;6159733;23;20658;-81
2022/01/24 10:31:43;;;;;;;13.77;7.27;;;;;;;-0.56;49.93;98212.09;6105990;23;20174;-82
2022/01/24 10:34:53;;;;;;;11.20;6.90;;;;;;;-0.80;52.42;98203.19;6131693;23;20174;-81
2022/01/24 10:38:16;;;;;;;10.20;6.70;;;;;;;-0.82;50.82;98204.84;6154702;23;20194;-79
2022/01/24 10:42:10;;;;;;;11.97;7.80;;;;;;;-0.69;51.99;98205.09;6107299;23;20178;-80
2022/01/24 10:45:31;;;;;;;11.43;6.83;;;;;;;-1.23;50.66;98169.38;6136697;23;20173;-79
2022/01/24 10:48:53;;;;;;;10.23;6.20;;;;;;;-1.56;50.29;98213.59;6109851;23;20207;-81
2022/01/24 10:52:19;;;;;;;10.33;6.63;;;;;;;-1.28;51.88;98204.03;6158330;23;20257;-80
2022/01/24 10:56:01;;;;;;;14.93;8.53;;;;;;;-0.82;51.36;98197.22;6137929;23;20252;-79
2022/01/24 10:59:06;;;;;;;12.57;6.97;;;;;;;-0.69;50.98;98200.00;6161401;23;20167;-81
2022/01/24 11:02:33;;;;;;;11.30;5.77;;;;;;;-1.22;50.98;98200.75;6134007;23;20250;-81
2022/01/24 11:05:54;;;;;;;10.97;6.83;;;;;;;-1.63;50.70;98195.69;6143619;23;20167;-80
2022/01/24 11:09:15;;;;;;;10.47;5.90;;;;;;;-1.81;51.48;98192.78;6136633;23;20174;-80
2022/01/24 11:12:41;;;;;;;8.90;5.57;;;;;;;-1.01;52.87;98173.19;6159235;23;20199;-81
2022/01/24 11:16:02;;;;;;;9.77;5.77;;;;;;;-0.84;52.12;98181.94;6138606;23;20681;-81
2022/01/24 11:22:45;;;;;;;9.80;6.87;;;;;;;-1.17;49.64;98186.41;6158930;23;20195;-85
2022/01/24 11:26:08;;;;;;;12.03;7.50;;;;;;;-1.30;51.85;98181.97;6107208;23;20262;-82
2022/01/24 11:29:31;;;;;;;12.17;6.83;;;;;;;-1.74;51.46;98171.81;6111758;23;20221;-81
2022/01/24 11:32:48;;;;;;;10.77;5.87;;;;;;;-1.31;52.64;98176.00;6140470;23;20237;-83
2022/01/24 11:36:13;;;;;;;9.00;5.77;;;;;;;-1.37;51.02;98165.75;6108946;23;20202;-85
2022/01/24 11:39:38;;;;;;;11.30;6.43;;;;;;;-1.84;52.11;98202.03;6156379;23;20231;-81
2022/01/24 11:42:59;;;;;;;9.20;6.27;;;;;;;-1.83;53.36;98196.97;6154044;23;20207;-81
2022/01/24 11:46:22;;;;;;;11.93;5.70;;;;;;;-2.63;52.68;98166.44;6128732;23;20459;-81
2022/01/24 11:49:52;;;;;;;11.23;5.37;;;;;;;-2.88;54.69;98218.19;6127802;23;20191;-81
2022/01/24 11:53:14;;;;;;;9.53;5.90;;;;;;;-2.79;54.62;98203.22;6126964;23;20178;-80
2022/01/24 11:56:40;;;;;;;9.47;6.00;;;;;;;-2.41;55.08;98215.97;6127745;23;20175;-81
2022/01/24 12:00:08;;;;;;;11.17;6.03;;;;;;;-2.44;54.45;98205.75;6132972;23;20174;-84
2022/01/24 12:03:14;;;;;;;9.23;5.93;;;;;;;-2.36;54.68;98210.19;6158553;23;20204;-80
2022/01/24 12:06:37;;;;;;;8.40;5.23;;;;;;;-1.97;54.48;98212.75;6108237;23;20175;-82
2022/01/24 12:10:04;;;;;;;11.70;6.70;;;;;;;-1.68;54.22;98207.47;6152739;23;20251;-83
2022/01/24 12:13:37;;;;;;;8.87;5.13;;;;;;;-2.08;52.35;98220.13;6129131;23;20177;-81
2022/01/24 12:17:00;;;;;;;7.83;5.80;;;;;;;-2.17;53.35;98225.00;6128025;23;20276;-81
2022/01/24 12:20:21;;;;;;;7.87;5.00;;;;;;;-1.91;52.90;98215.41;6082087;23;20231;-81
2022/01/24 12:23:24;;;;;;;12.30;6.77;;;;;;;-1.49;51.73;98217.97;6159950;23;20232;-80
2022/01/24 12:26:48;;;;;;;11.67;5.37;;;;;;;-1.79;51.15;98225.81;6164096;23;20683;-80
2022/01/24 12:30:09;;;;;;;12.97;6.80;;;;;;;-1.91;51.71;98221.34;6165884;23;20168;-81
2022/01/24 12:33:33;;;;;;;8.10;5.73;;;;;;;-2.16;53.25;98224.16;6113849;23;20273;-84
2022/01/24 12:36:36;;;;;;;8.40;5.60;;;;;;;-2.14;54.39;98235.19;6164325;23;20217;-81
2022/01/24 12:40:24;;;;;;;12.50;6.43;;;;;;;-2.21;54.68;98224.88;6140007;23;20177;-82
2022/01/24 12:47:26;;;;;;;7.20;3.80;;;;;;;-2.71;53.24;98236.34;6148509;23;20195;-80
2022/01/24 12:50:51;;;;;;;9.63;5.13;;;;;;;-2.48;53.47;98220.03;6131884;23;20167;-81
2022/01/24 12:54:13;;;;;;;6.30;4.00;;;;;;;-2.57;51.79;98240.09;6151646;23;20168;-80
2022/01/24 12:57:39;;;;;;;13.63;6.17;;;;;;;-2.50;52.78;98249.56;6128121;23;20274;-80
2022/01/24 13:01:09;;;;;;;7.40;4.33;;;;;;;-2.58;53.63;98246.00;6105821;23;20558;-80
2022/01/24 13:04:19;;;;;;;8.60;5.27;;;;;;;-2.23;53.17;98239.22;6132884;23;20650;-81
2022/01/24 13:07:40;;;;;;;5.60;4.13;;;;;;;-2.33;51.36;98265.19;6105777;23;20284;-81
2022/01/24 13:11:01;;;;;;;10.37;5.00;;;;;;;-2.65;51.86;98260.19;6101856;23;20248;-84
2022/01/24 13:14:59;;;;;;;7.13;4.57;;;;;;;-2.48;53.71;98268.22;6133491;23;20193;-84
2022/01/24 13:21:48;;;;;;;8.13;4.50;;;;;;;-2.45;53.38;98275.88;6156875;23;20168;-83
2022/01/24 13:25:07;;;;;;;10.00;5.70;;;;;;;-2.61;52.10;98271.25;6105838;23;20598;-81
2022/01/24 13:27:57;;;;;;;10.77;4.93;;;;;;;-2.57;53.46;98258.69;6125647;23;20173;-82
2022/01/24 13:31:22;;;;;;;12.37;5.43;;;;;;;-2.42;52.82;98260.75;6125053;23;20472;-81
2022/01/24 13:34:45;;;;;;;9.00;5.33;;;;;;;-2.32;53.93;98271.97;6101429;23;20176;-81
2022/01/24 13:38:21;;;;;;;8.60;5.57;;;;;;;-2.37;54.02;98264.25;6101178;23;20243;-81
2022/01/24 13:41:43;;;;;;;11.50;6.70;;;;;;;-2.29;55.95;98270.38;6148095;23;20182;-82
2022/01/24 13:45:05;;;;;;;9.83;5.83;;;;;;;-2.41;55.62;98275.13;6140130;23;20622;-81
2022/01/24 13:48:26;;;;;;;14.87;7.63;;;;;;;-2.14;58.42;98282.56;6148356;23;20181;-81
2022/01/24 13:51:51;;;;;;;9.87;5.00;;;;;;;-2.42;54.56;98283.56;6169367;23;20168;-81
2022/01/24 13:55:12;;;;;;;6.83;4.50;;;;;;;-2.71;54.81;98298.06;6159476;23;20176;-81
2022/01/24 13:58:32;;;;;;;5.23;4.20;;;;;;;-3.17;53.62;98312.00;6168711;23;20266;-80
2022/01/24 14:01:55;;;;;;;7.07;4.20;;;;;;;-3.26;53.70;98283.88;6170974;23;20191;-81
2022/01/24 14:05:03;;;;;;;8.20;5.17;;;;;;;-3.14;54.66;98299.41;6152105;23;20167;-81
2022/01/24 14:08:36;;;;;;;8.50;4.60;;;;;;;-3.09;54.64;98295.34;6107371;23;20176;-81
2022/01/24 14:12:03;;;;;;;9.27;5.13;;;;;;;-3.01;54.19;98301.47;6125102;23;20201;-82
2022/01/24 14:15:35;;;;;;;10.83;6.47;;;;;;;-3.10;53.33;98288.53;6129051;23;20178;-81
2022/01/24 14:19:04;;;;;;;10.40;6.00;;;;;;;-3.26;54.13;98299.06;6127735;23;20171;-81
2022/01/24 14:22:04;;;;;;;5.90;4.33;;;;;;;-3.12;54.58;98302.84;6153791;23;20169;-80
2022/01/24 14:25:26;;;;;;;7.23;4.57;;;;;;;-3.06;54.72;98297.94;6126306;23;20252;-80
2022/01/24 14:28:48;;;;;;;7.53;4.80;;;;;;;-3.07;53.58;98302.13;6149935;23;20174;-80
2022/01/24 14:32:11;;;;;;;9.23;5.17;;;;;;;-3.16;54.39;98311.16;6103323;23;20260;-79
2022/01/24 14:35:35;;;;;;;9.17;5.50;;;;;;;-3.12;56.51;98305.38;6104554;23;20199;-81
2022/01/24 14:38:57;;;;;;;10.27;6.33;;;;;;;-3.17;54.79;98309.47;6124577;23;20510;-80
2022/01/24 14:42:33;;;;;;;11.30;6.13;;;;;;;-3.19;54.83;98298.44;6125732;23;20639;-80